Hamersville, Ohio
Current Conditions -  °F | °C
As of 2:53 AM on Tuesday 21 Oct 2014 (Local Time) from KLUK Reporting Station
Overcast Overcast  
Wind Chill: 56°   Ceiling: 5000
Heat Index: 56°   Visibility: 10mi
Dew Point: 49°   Wind: 3mph
Humidity: 77%   Direction: 300°WNW
Pressure: 29.93"   Gusts: NA
Location:  38.92°N, 83.98°W
Report Text: KLUK 210653Z 30003KT 10SM OVC050 13/09 A2993 RMK AO2 SLP133 T01330094
Loading
Personal Weather Stations






























Interactive Weather Map
Tropical Storm Tracking
New forecast layout! Learn more

10-Day Weather Forecast

Advertisements
Track Severe Weather on mobile